Weather observations for the past three days for
Grant County Airport
Metric (Imperial)
Date Time (mdt) Wind (kph) Vis. (km) Weather Sky Cond. Temperature (ºC) Relative Humidity Wind Chill (°C) Heat Index (°C) Pressure Precipitation (cm)
Air Dwpt 6 hour altimeter (cm) sea level (mb) 1 hr 3 hr 6 hr
Max. Min.
08 08:15 NW 20 16.09 Fair CLR 18 -8.7 15% 76.38 0.0
08 07:35 NW 17 16.09 Fair CLR 16.7 -11.1 14% 76.35 0.0
08 07:15 NW 17 16.09 Fair CLR 14.3 -9.9 18% 76.33 0.0
08 06:55 NW 13 16.09 Fair CLR 12.6 -9.3 21% 76.33 0.0
08 06:35 NW 17 16.09 Fair CLR 11.5 -9.1 23% 76.3 0.0
08 06:15 NW 19 16.09 Fair CLR 12 -9 22% 76.3 0.0
08 05:55 NW 17 16.09 Fair CLR 11.5 -9.9 14.2 9.4 21% 76.28 0.0
08 05:35 NW 22 16.09 Fair CLR 10.8 -9.5 23% 76.25 0.0
08 05:15 NW 17 16.09 Fair CLR 10.1 -8.1 27% 76.25 0.0
08 04:55 NW 19 16.09 Fair CLR 10.3 -8.3 26% 76.25 0.0
08 04:35 NW 19 16.09 Fair CLR 10 -8.1 27% 8 76.25 0.0
08 04:15 N 17 16.09 Fair CLR 11.4 -8.5 24% 76.25 0.0
08 03:55 N 22 16.09 Fair CLR 11.7 -8.5 24% 76.25 0.0
08 03:35 N 17 16.09 Fair CLR 11.6 -8.5 24% 76.25 0.0
08 03:15 N 17 16.09 Fair CLR 10.9 -8.5 25% 76.28 0.0
08 02:55 N 15 16.09 Fair CLR 13.1 -8.6 21% 76.3 0.0
08 02:35 NW 19 16.09 Fair CLR 13.2 -8.5 21% 76.3 0.0
08 02:15 N 20 16.09 Fair CLR 13.1 -9.2 20% 76.33 0.0
08 01:55 NW 22 16.09 Fair CLR 12.2 -9 22% 76.33 0.0
08 01:35 N 19 16.09 Fair CLR 12.5 -9 22% 76.35 0.0
08 01:15 NW 19 16.09 Fair CLR 11.7 -8.2 24% 76.38 0.0
08 00:55 NW 15 16.09 Fair CLR 10.4 -7.7 27% 76.38 0.0
08 00:35 N 15 16.09 Fair CLR 11 -7.9 26% 76.35 0.0
08 00:15 N 15 16.09 Fair CLR 12.1 -7.9 24% 76.38 0.0
07 23:55 N 17 16.09 Fair CLR 12.2 -7.7 24.3 10.9 24% 76.38 0.0
07 23:35 N 13 16.09 Fair CLR 10.9 -7.5 27% 76.35 0.0
07 23:15 N 17 16.09 Fair CLR 12.7 -7.7 24% 76.35 0.0
07 22:55 N 13 16.09 Fair CLR 13 -7.6 23% 76.35 0.0
07 22:35 N 13 16.09 Fair CLR 12 -6.8 26% 76.35 0.0
07 22:15 NW 9 16.09 Fair CLR 12 -6.7 27% 76.35 0.0
07 21:55 NW 11 16.09 Fair CLR 12.3 -7 26% 76.33 0.0
07 21:35 NW 7 16.09 Fair CLR 13.4 -7.5 23% 76.3 0.0
07 21:15 W 9 16.09 Fair CLR 14.2 -8 21% 76.3 0.0
07 20:55 W 6 16.09 Fair CLR 19.1 -9.1 14% 76.28 0.0
07 20:35 SW 7 16.09 Fair CLR 19.6 -10.2 12% 76.25 0.0
07 20:15 SW 7 16.09 Fair CLR 20.1 -10.5 12% 76.25 0.0
07 19:55 SW 7 16.09 Fair CLR 20.6 -10.6 11% 76.23 0.0
07 19:35 SW 9 16.09 Fair CLR 22.3 -11.2 10% 76.2 0.0
07 19:15 S 9 16.09 Fair CLR 23.1 -11.3 9% 76.2 0.0
07 18:55 S 9 16.09 Fair CLR 23.6 -11.6 9% 76.2 0.0
07 18:35 SW 7 16.09 Fair CLR 23.4 -11.7 9% 76.2 0.0
07 18:15 S 15 16.09 Fair CLR 24.3 -11.5 8% 24 76.2 0.0
07 17:55 S 11 16.09 Fair CLR 24.2 -11.6 25.2 21.7 8% 24 76.2 0.0
07 17:35 S 19 G 30 16.09 Fair CLR 24.8 -11.5 8% 24 76.2 0.0
07 17:15 Calm 16.09 Fair CLR 24.3 -11.7 8% 24 76.23 0.0
07 16:55 W 7 G 30 16.09 Fair CLR 24 -12.2 8% 24 76.25 0.0
07 16:35 S 15 16.09 Fair CLR 24.6 -12.1 8% 24 76.25 0.0
07 16:15 SW 20 G 26 16.09 Fair CLR 25.2 -11.5 8% 24 76.25 0.0
07 15:55 S 19 G 28 16.09 Fair CLR 24.7 -11.5 8% 24 76.25 0.0
07 15:35 S 17 16.09 Fair CLR 24 -10.5 9% 24 76.28 0.0
07 15:15 S 20 G 28 16.09 Fair CLR 24 -11.6 8% 24 76.3 0.0
07 14:55 S 15 G 30 16.09 Fair CLR 24.4 -10.7 9% 24 76.33 0.0
07 14:30 W 6 16.09 Fair CLR 24.5 -10.3 9% 24 76.35 0.0
07 14:15 NW 6 16.09 Fair CLR 23 -10.2 10% 76.35 0.0
07 13:55 S 11 16.09 Fair CLR 23.9 -10.6 9% 24 76.38 0.0
07 13:35 SW 9 16.09 Fair CLR 23.1 -10.7 10% 76.38 0.0
07 13:15 SW 19 16.09 Fair CLR 23 -10 10% 76.4 0.0
07 12:55 SE 15 16.09 Fair CLR 23.3 -9.8 10% 76.43 0.0
07 12:35 S 17 G 26 16.09 Fair CLR 23 -9.2 11% 76.45 0.0
07 12:15 S 9 16.09 Fair CLR 21.9 -9.4 11% 76.45 0.0
07 11:55 SW 9 16.09 Fair CLR 22.2 -9.7 22.3 5.1 11% 76.45 0.0
07 11:35 NW 9 16.09 Fair CLR 21.6 -11.1 10% 76.48 0.0
07 11:15 SW 17 16.09 Fair CLR 22 -9.4 11% 76.5 0.0
07 10:55 Calm 16.09 Fair CLR 20.9 -7.8 14% 76.5 0.0
07 10:35 SE 15 16.09 Fair CLR 20.5 -6.8 15% 76.5 0.0
07 10:15 S 7 16.09 Fair CLR 19.9 -6.4 16% 76.53 0.0
07 09:55 SE 11 16.09 Fair CLR 19.3 -5.1 19% 76.53 0.0
07 09:35 E 6 16.09 Fair CLR 19 -5.2 19% 76.56 0.0
07 09:15 Calm 16.09 Fair CLR 17.2 -5.1 21% 76.56 0.0
07 08:55 Calm 16.09 Fair CLR 16.2 -4.7 24% 76.56 0.0
07 08:35 Calm 16.09 Fair CLR 16 -5 23% 76.56 0.0
07 08:15 Calm 16.09 Fair CLR 14.6 -4.6 26% 76.56 0.0
07 07:55 N 6 16.09 Fair CLR 13.1 -3.8 31% 76.56 0.0
07 07:35 N 6 16.09 Fair CLR 11.3 -4 34% 76.53 0.0
07 07:15 NW 7 16.09 Fair CLR 8.6 -4.2 40% 8 76.53 0.0
07 06:55 NW 11 16.09 Fair CLR 6.9 -4.6 44% 5 76.53 0.0
07 06:35 NW 9 16.09 Fair CLR 5.3 -5.1 47% 3 76.5 0.0
07 06:15 N 13 16.09 Fair CLR 6 -5.2 45% 4 76.5 0.0
07 05:55 NW 15 16.09 Fair CLR 5.7 -5.1 10.4 4.8 46% 3 76.48 0.0
07 05:35 NW 11 16.09 Fair CLR 5.9 -5.3 45% 4 76.48 0.0
07 05:15 NW 11 16.09 Fair CLR 6.5 -5.3 43% 5 76.48 0.0
07 04:55 NW 9 16.09 Fair CLR 6.1 -5.8 43% 4 76.48 0.0
07 04:35 N 11 16.09 Fair CLR 7.3 -6 39% 5 76.48 0.0
07 04:15 N 13 16.09 Fair CLR 8 -6.1 37% 6 76.48 0.0
07 03:55 N 17 16.09 Fair CLR 8.7 -6.5 34% 6 76.48 0.0
07 03:35 N 15 16.09 Fair CLR 8.6 -6.5 34% 6 76.48 0.0
07 03:15 N 17 16.09 Fair CLR 8.1 -6.5 35% 6 76.48 0.0
07 02:55 N 17 16.09 Fair CLR 7.8 -6.8 35% 5 76.48 0.0
07 02:35 N 17 16.09 Fair CLR 7.5 -7.1 35% 5 76.5 0.0
07 02:15 N 17 16.09 Fair CLR 8 -6.9 34% 6 76.5 0.0
07 01:55 NW 17 16.09 Fair CLR 7.9 -6.8 35% 5 76.53 0.0
07 01:15 NW 13 16.09 Fair CLR 7.1 -7.2 36% 5 76.53 0.0
07 00:55 NW 11 16.09 Fair CLR 8.4 -7.5 32% 7 76.56 0.0
07 00:35 NW 13 16.09 Fair CLR 8.8 -7.6 31% 7 76.53 0.0
07 00:15 N 9 16.09 Fair CLR 10.2 -8.1 27% 76.53 0.0
06 23:55 N 11 16.09 Fair CLR 10.4 -8.4 21 10.4 26% 76.53 0.0
06 23:35 N 15 16.09 Fair CLR 11.7 -8.7 23% 76.5 0.0
06 23:15 NW 17 16.09 Fair CLR 11.2 -8.8 24% 76.5 0.0
06 22:55 N 17 16.09 Fair CLR 11.3 -9.1 23% 76.5 0.0
06 22:35 N 15 16.09 Fair CLR 11.3 -9.5 22% 76.5 0.0
06 22:15 N 17 16.09 Fair CLR 10.7 -9.5 23% 76.5 0.0
06 21:55 N 15 16.09 Fair CLR 11.1 -10.1 22% 76.48 0.0
06 21:35 NW 9 16.09 Fair CLR 11.7 -10.6 20% 76.45 0.0
06 21:15 NW 11 16.09 Fair CLR 13.5 -11.8 16% 76.45 0.0
06 20:55 W 9 16.09 Fair CLR 15.3 -12.8 13% 76.43 0.0
06 20:35 W 11 16.09 Fair CLR 16.4 -14.1 11% 76.4 0.0
06 20:15 W 11 16.09 Fair CLR 16.9 -14.2 11% 76.38 0.0
06 19:55 W 15 16.09 Fair CLR 17.7 -14.2 10% 76.35 0.0
06 19:35 W 19 16.09 Fair CLR 18.7 -14.6 9% 76.35 0.0
06 19:15 W 19 G 28 16.09 Fair CLR 19.3 -15 9% 76.33 0.0
06 18:55 W 17 G 26 16.09 Fair CLR 19.8 -14.8 8% 76.3 0.0
06 18:35 W 17 G 26 16.09 Fair CLR 20.2 -15.6 8% 76.3 0.0
06 18:15 W 15 G 31 16.09 Fair CLR 20.4 -15.6 8% 76.28 0.0
06 17:55 W 20 G 33 16.09 Fair CLR 20.5 -16.2 21.7 16.9 7% 76.28 0.0
06 17:35 W 20 G 33 16.09 Fair CLR 20.9 -15.6 7% 76.28 0.0
06 17:15 W 20 G 41 16.09 Fair CLR 21 -14.6 8% 76.28 0.0
06 16:55 W 22 G 37 16.09 Fair CLR 21.4 -14 8% 76.25 0.0
06 16:35 W 20 G 37 16.09 Fair CLR 21.3 -14.5 8% 76.28 0.0
06 16:15 W 17 G 31 16.09 Fair CLR 21.2 -15.3 7% 76.28 0.0
06 15:55 W 31 G 37 16.09 Fair CLR 21 -14.8 8% 76.28 0.0
06 15:35 W 22 G 37 16.09 Fair CLR 21 -12.8 9% 76.3 0.0
06 15:15 W 24 G 43 16.09 Fair CLR 20.7 -13.2 9% 76.3 0.0
06 14:55 W 26 G 39 16.09 Fair CLR 20.6 -13.3 9% 76.3 0.0
06 14:35 W 31 G 41 16.09 Fair CLR 20.7 -11 11% 76.3 0.0
06 14:15 W 24 G 46 16.09 Fair CLR 20.3 -12.1 10% 76.33 0.0
06 13:55 W 15 G 37 16.09 Fair CLR 19.7 -10.7 12% 76.35 0.0
06 13:35 W 28 G 33 16.09 Fair CLR 19.3 -11.2 12% 76.35 0.0
06 13:15 NW 22 G 39 16.09 Fair CLR 18.8 -9.1 14% 76.35 0.0
06 12:55 W 17 16.09 Fair CLR 18.3 -6 19% 76.38 0.0
06 12:35 NW 13 G 30 16.09 Fair CLR 18.2 -6.4 18% 76.38 0.0
06 12:15 NW 24 G 33 16.09 Fair CLR 17.8 -6.6 18% 76.4 0.0
06 11:55 W 17 G 33 16.09 Fair CLR 17 -6.7 17.6 5.2 19% 76.4 0.0
06 11:35 W 20 G 26 16.09 Fair CLR 16.9 -7.7 18% 76.4 0.0
06 11:15 NW 22 G 35 16.09 Fair CLR 16.4 -8.5 17% 76.4 0.0
06 10:50 W 9 G 15 16.09 Fair CLR 15.1 -4.4 26% 76.4 0.0
06 10:35 NW 15 16.09 Fair CLR 14.8 -4.1 27% 76.4 0.0
06 10:15 W 22 G 31 16.09 Fair CLR 14.5 -3.3 29% 76.4 0.0
06 09:55 NW 22 G 33 16.09 Fair CLR 14 -3 31% 76.4 0.0
06 09:35 NW 24 16.09 Fair CLR 13.7 -2.5 33% 76.4 0.0
06 09:15 W 22 G 33 16.09 Fair CLR 13.1 -2.2 35% 76.4 0.0
06 08:55 NW 26 G 35 16.09 Fair CLR 12.8 -2.2 36% 76.4 0.0
06 08:35 NW 7 16.09 Fair CLR 11.3 0.2 47% 76.4 0.0
06 08:15 NW 9 16.09 Fair CLR 10.5 0.7 51% 76.4 0.0
06 07:55 N 6 16.09 Fair CLR 9.4 0.8 55% 76.4 0.0
06 07:35 NE 9 16.09 Fair CLR 8.7 1 59% 7 76.4 0.0
06 07:15 N 6 16.09 Fair CLR 7.6 1 63% 76.35 0.0
06 06:55 NW 9 16.09 Fair CLR 6.4 0.6 67% 5 76.33 0.0
06 06:35 NW 15 16.09 Fair CLR 5.2 0.1 70% 2 76.3 0.0
06 06:15 NW 19 16.09 Fair CLR 6.7 0.2 64% 4 76.3 0.0
06 05:55 NW 17 16.09 Fair CLR 5 0.1 10.9 4.3 71% 2 76.28 0.0
06 05:35 NW 13 16.09 Fair CLR 4.6 0.2 73% 2 76.28 0.0
06 04:55 N 15 16.09 Fair CLR 5.6 0.5 70% 3 76.28 0.0
06 04:35 NW 11 16.09 Fair CLR 4.7 -0.1 71% 2 76.28 0.0
06 04:15 NW 7 16.09 Fair CLR 4.8 -0.1 71% 3 76.25 0.0
06 03:55 N 11 16.09 Fair CLR 5.7 0.1 68% 4 76.25 0.0
06 03:35 N 15 16.09 Fair CLR 6.5 0.5 66% 4 76.25 0.0
06 03:15 N 11 16.09 Fair CLR 6.7 0.2 64% 5 76.25 0.0
06 02:55 NW 11 16.09 Fair CLR 6.5 0.2 64% 5 76.23 0.0
06 02:35 NW 13 16.09 Fair CLR 6.8 0.3 64% 5 76.23 0.0
06 02:15 NW 15 16.09 Partly Cloudy SCT065 8.1 0.2 58% 6 76.23 0.0
06 01:55 W 13 16.09 Partly Cloudy SCT065 8.4 0.3 57% 7 76.25 0.0
06 01:35 NW 9 16.09 Fair CLR 8.4 0.2 57% 7 76.25 0.0
06 01:15 NW 9 16.09 Fair CLR 8.1 0 57% 7 76.23 0.0
06 00:55 NW 9 16.09 Fair CLR 8.4 0 56% 7 76.23 0.0
06 00:35 NW 9 16.09 Fair CLR 8 -0.1 57% 7 76.23 0.0
06 00:15 NW 13 16.09 Fair CLR 8.3 -0.6 54% 6 76.2 0.0
05 23:15 W 19 16.09 Fair CLR 13.1 -0.5 39% 76.15 0.0
05 22:55 W 31 16.09 Partly Cloudy SCT100 13.7 0.5 41% 76.15 0.0
05 22:35 W 22 16.09 Mostly Cloudy BKN100 14.1 0.6 40% 76.15 0.0
05 22:15 W 26 16.09 Mostly Cloudy BKN090 14.5 0.6 39% 76.15 0.0
05 21:55 W 22 16.09 Overcast OVC090 15 0 36% 76.12 0.0
05 21:35 W 19 G 26 16.09 Mostly Cloudy BKN090 BKN110 15.9 -0.4 33% 76.1 0.0
05 21:15 W 13 16.09 Mostly Cloudy BKN090 16.1 -0.8 32% 76.05 0.0
05 20:55 W 19 G 28 16.09 Partly Cloudy SCT100 16.2 -1.7 30% 76.02 0.0
05 20:35 W 22 G 37 16.09 Partly Cloudy SCT100 16.7 -2.5 27% 76.02 0.0
05 20:15 SW 22 G 43 16.09 Mostly Cloudy BKN100 BKN120 17.5 -5.1 21% 76 0.0
05 19:55 W 22 G 31 16.09 Fair CLR 17.7 -5.2 21% 75.97 0.0
05 19:35 W 28 G 41 16.09 Fair CLR 18.5 -5.8 19% 75.95 0.0
05 19:15 W 28 G 39 16.09 Partly Cloudy SCT100 19.5 -5.1 19% 75.92 0.0
05 18:55 W 30 G 44 16.09 Mostly Cloudy BKN100 20.1 -5.5 17% 75.92 0.0
05 18:35 W 37 G 46 16.09 Partly Cloudy and Breezy SCT100 20.1 -4.7 18% 75.92 0.0
05 18:15 W 39 G 52 16.09 Fair and Breezy CLR 20.7 -4.2 18% 75.92 0.0
05 17:55 W 33 G 57 16.09 Fair and Breezy CLR 20.7 -4.4 21.2 15.1 18% 75.92 0.0
05 17:35 W 24 G 46 16.09 Partly Cloudy SCT095 20.7 -3.8 19% 75.92 0.0
05 17:15 W 37 G 46 16.09 Mostly Cloudy and Breezy SCT095 BKN110 20.7 -1.5 23% 75.92 0.0
05 16:55 W 33 G 44 16.09 Mostly Cloudy and Breezy SCT095 BKN110 19.7 -1.1 25% 75.95 0.0
05 16:35 SW 28 G 48 16.09 Mostly Cloudy SCT070 SCT100 BKN120 20.8 -0.4 24% 75.95 0.0
05 16:15 SW 26 G 41 16.09 Partly Cloudy SCT070 SCT100 SCT120 20.7 -0.1 25% 75.97 0.0
05 15:55 W 26 G 48 16.09 Mostly Cloudy SCT060 BKN100 BKN120 20.6 0.3 26% 76 0.0
05 15:35 W 26 G 41 16.09 Partly Cloudy SCT065 SCT120 20.7 1.4 28% 76.02 0.0
05 15:15 SW 20 G 46 16.09 Fair CLR 20.3 2.3 30% 76.05 0.0
05 14:55 W 30 G 41 16.09 Partly Cloudy SCT060 SCT080 19.5 2.4 32% 76.07 0.0
05 14:35 W 22 G 41 16.09 Mostly Cloudy SCT060 BKN070 BKN080 19.1 2.4 33% 76.1 0.0
05 14:15 SW 20 G 33 16.09 Overcast SCT050 BKN060 OVC085 18.7 3.6 37% 76.12 0.0
05 13:35 SW 24 G 30 16.09 Mostly Cloudy SCT048 SCT050 BKN065 17.7 3.7 40% 76.15 0.0
05 13:15 W 28 G 39 16.09 Mostly Cloudy SCT043 BKN050 BKN065 16.7 3.4 41% 76.17 0.0
05 12:55 SW 19 G 33 16.09 Overcast SCT043 BKN049 OVC065 16.4 4 44% 76.2 0.0
05 12:35 W 22 G 41 16.09 Mostly Cloudy SCT043 BKN050 BKN060 16.2 4.3 45% 76.2 0.0
05 12:15 SW 30 G 37 16.09 Overcast BKN038 OVC048 15.6 4.9 49% 76.2 0.0
05 11:55 W 20 G 31 16.09 Overcast BKN038 OVC047 15.1 5 15.2 9.3 51% 76.2 0.0
05 11:35 W 20 G 33 16.09 Overcast BKN036 OVC041 15 5.1 52% 76.2 0.0
05 11:15 SW 11 16.09 Overcast OVC032 13.5 6 61% 76.23 0.0
05 10:55 W 9 16.09 Overcast OVC032 12.9 6 63% 76.23 0.0
05 10:30 NW 15 16.09 Overcast OVC034 12.6 5.8 64% 76.2 0.0
05 10:15 NW 11 16.09 Overcast BKN034 BKN045 OVC050 12.5 5.6 63% 76.2 0.0
05 09:55 NW 13 16.09 Overcast SCT034 BKN047 OVC120 12.4 5.5 63% 76.2 0.0
05 09:35 W 19 16.09 Mostly Cloudy SCT032 SCT050 BKN065 12.9 6.8 67% 76.2 0.0
05 09:15 NW 17 16.09 Overcast SCT032 BKN047 OVC070 11.6 7 74% 76.2 0.0
05 08:55 NW 13 16.09 Light Rain SCT047 BKN055 OVC065 10.9 6.9 77% 76.17 0.0
05 08:35 NW 19 16.09 Overcast BKN055 BKN065 OVC075 11.5 4.7 63% 76.15 0.0
Date Time (mdt) Wind (kph) Vis. (km) Weather Sky Cond. Air Dwpt Max. Min. Relative Humidity Wind Chill (°C) Heat Index (°C) altimeter (cm) sea level (mb) 1 hr 3 hr 6 hr
6 hour
Temperature (ºC) Pressure Precipitation (cm)